logo dgac
Lunes 20 de Septiembre del 2021
Buscar por aerodromo o helipuerto
Ingrese nombre de aeródromo, localidad o designador OACI:

Aeródromo: La Araucania (PUB) (SCQP)

Ubicación: Freire, IX Región, Chile (38º 55' 33'' S, 72º 39' 05'' W) Ver ubicación en el mapa

Pistas

Orientación Dimensión Pendiente Superficie Resistencia APCH THR RWY PAPI
01/19 2440 x 45 0,10 ASFALTO 50/F/C/X/T Sí (3º)
Horas de operación HJ
Elevación 321 FT (98m) ft
Otra Información Adm : DGAC
Uso : PUB
Ubicado a 20 Km al S de Temuco
Teléfonos : 452554926 ARO / 452554927 MET / 452554900 CENTRAL TELEFÓNICA.
email : aro.temuco@dgac.gob.cl

Otra información ver AIP CHILE VOL I AD 3.9-6.1-F
CCCM/FCCV Descargar
andera de Chile
Mapa de La Araucania (PUB) (SCQP)

Último METAR

METAR SCQP 201200Z VRB02KT CAVOK 06/05 Q1027

Último TAF

TAF SCQP 201013Z 2012/2112 17007KT CAVOK TN04/2012Z TX17/2019Z BECMG 2013/2015 21010KT BECMG 2100/2102 17005KT

Últimas fotos cámaras

Imagen aerodromo La Araucania (PUB) (SCQP) Sur tomada el 20-09-2021 12:00:21 Imagen aerodromo La Araucania (PUB) (SCQP) Norte tomada el 20-09-2021 11:59:53

Último NOTAM

C4127/21 NOTAMN Q)SCTZ/QFALT/IV/NBO/A/000/999/3856S07239W005 A)SCQP B)2109141848 C)2111302359 E)DEBIDO A LIMITACIONES DE CAPACIDAD DE PRKG PARA TODOS LOS VUELOS NO ITINERANTES SE PERMITE PERMANENCIA EN APN AVIACION GENERAL SOLAMENTE 1 HR. OTROS RQ COOR BFR FPL CON ARO.TEMUCO(ARROBA)DGAC.GOB.CL TEL 452554926